Oslo, Norwegen

09:16 AM CEST am 29. März 2017 (GMT +0200)
Ringveien | | Change Station

Höhe 820 ft 60.06 °N, 10.85 °E | Updated 7 minutes ago

Schneefall
Schneefall
34.2 °F
gefühlte 34 °F
N
1.2
Wind Wechselnd Wind aus Nord-Nordost
Gusts 5.0 mph

Heute
Max. -- | schwach -- °F
--% Regenrisiko
Gestern
Max. -- | schwach -- °F
Precip. -- inch
Druck 29.92 inch
Sichtweite -9999.0 Meilen
Wolken
Windchill 34 °F
Taupunkt 24 °F
Feuchtigkeit 65%
Regen 0.00 inch
Schneehöhe Nicht verfügbar..
6:50 AM 7:53 PM
Neumond, 2% visible
METAR ENGM 290620Z 01004KT CAVOK 01/M07 Q1013 NOSIG
Druck 29.92 inch
Sichtweite -9999.0 Meilen
Wolken
Windchill 34 °F
Taupunkt 24 °F
Feuchtigkeit 65%
Regen 0.00 inch
Schneehöhe Nicht verfügbar..
6:50 AM 7:53 PM
Neumond, 2% visible
METAR ENGM 290620Z 01004KT CAVOK 01/M07 Q1013 NOSIG

Get Severe Weather Alerts

Thanks for signing up!

Be on the lookout for a verification email in your inbox.

You'll start receiving the daily forecast at 8 AM.

×

10-Day Weather Forecast

×

Almanac

Astronomie

Mar. 29, 2017 Aufgang Untergang
Genaue Zeit
Bürgerliche Dämmerung
Nautische Dämmerung
Astronomische Dämmerung
Mond
Länge des sichtbaren Lichts
Tageslänge
Tomorrow will be .
, % of the Moon is Illuminated

Heutige Rekorde

Country Highs Country Lows

Community

WunderPhotos

Upload Photos

1,962,540 Fotos hochgeladen!

WunderBlog® & News

Nearby

Luftqualität

  Luftqualität LQ Index Schadstoff
Not available.

Schneehöhe

Station Depth Höhe

Erdbebenaktivität

Stadt Distance Mag. Time & Date
Minimum magnitude displayed is 2.5.

Erdbebenaktivität

Stadt Distance Mag. Time & Date
Minimum magnitude displayed is 2.5.

küstennahe Wassertemperaturen

Ort Temperatur

Stations

Wetterstationen in der Umgebung

Stationsstandort Temp. Windchill Taupunkt Feuchtigkeit Wind Precip. Höhe Aktualisiert Art